Celebrity Solstice — 9HRJ9 — position and weather

sailwx.info

Track history (hours):
 
Tides and Currents Weather Stations Pressure Air Temp Water Temp Dewpoint Dewpoint Depression Visibility Wind Speed Wind Dir Waves Ship Positions

Celebrity Solstice

Last reported at 2016-Jul-24 11:00 UTC. Time now 2016-Jul-25 06:08 UTC.
Position N 55°00' W 131°06'.

Length 316 m; draft 9 m.

Type: Passenger vessel. MMSI: 249409000.

Wind from 140 at 15 knots

Barometer 1017.0 mb
Air temperature 13.7 ° C
Visibility: greater than 5.4 NM
Water temperature 15.0 ° C

Date/timePositionNaut miles runAvg speedWind from/ knotsBaromVisibWave heightAir tempDewpointWater temp
2016-Jul-24 11:00N 55°00' W 131°06'8516.9 140 / 151017.0 5.4 13.7 15.0
2016-Jul-24 06:00N 53°36' W 130°48'28817.2 180 / 141021.0 13.6 16.0
2016-Jul-23 13:15N 49°27' W 126°56'1217.8
2016-Jul-23 12:34N 49°19' W 126°42'1817.9
2016-Jul-23 11:33N 49°08' W 126°20'1933.5
2016-Jul-23 11:00N 48°54' W 126°00'3 6.2 300 / 101026.0 5.4 16.3 16.7
2016-Jul-23 10:34N 48°56' W 125°58'1817.9
2016-Jul-23 09:33N 48°45' W 125°37'1322.5
2016-Jul-23 09:00N 48°36' W 125°24'613.9 270 / 151027.0 5.4 1.016.0 15.5
2016-Jul-23 08:34N 48°34' W 125°15'1817.8
2016-Jul-23 07:34N 48°31' W 124°49'1918.9
2016-Jul-23 06:33N 48°25' W 124°22'3321.1
2016-Jul-23 05:00N 48°12' W 123°36'511.1 300 / 301026.0 14.4 16.0
2016-Jul-23 04:32N 48°14' W 123°29'1313.1
2016-Jul-23 03:33N 48°12' W 123°10'1616.2
2016-Jul-23 02:33N 48°11' W 122°46'1515.5
2016-Jul-23 01:34N 47°58' W 122°34'1616.0
2016-Jul-23 00:34N 47°42' W 122°27'5 0.9
2016-Jul-22 19:04N 47°38' W 122°23'452.5
2016-Jul-22 19:00N 47°36' W 122°18'4 1.0 190 / 61027.0 16.0
2016-Jul-22 15:11N 47°38' W 122°23'0 0.0
2016-Jul-22 13:32N 47°38' W 122°23'0 0.1
2016-Jul-22 12:33N 47°38' W 122°23'9 8.9
2016-Jul-22 11:33N 47°46' W 122°27'814.3
2016-Jul-22 11:00N 47°54' W 122°30'614.1 160 / 91022.0 5.4 16.1 14.2
2016-Jul-22 10:33N 47°59' W 122°36'1413.9
2016-Jul-22 09:33N 48°10' W 122°47'1515.3
2016-Jul-22 08:33N 48°11' W 123°10'1313.4
2016-Jul-22 07:33N 48°14' W 123°30'1111.5
2016-Jul-22 06:33N 48°25' W 123°23'0 0.1
2016-Jul-21 23:33N 48°25' W 123°24'1413.6
2016-Jul-21 22:33N 48°14' W 123°35'1817.3
2016-Jul-21 21:30N 48°16' W 124°03'1717.7
2016-Jul-21 20:33N 48°23' W 124°26'1717.1
2016-Jul-21 19:33N 48°28' W 124°50'1717.1
2016-Jul-21 18:33N 48°30' W 125°15'1716.9
2016-Jul-21 17:33N 48°38' W 125°38'1717.0
2016-Jul-21 16:34N 48°48' W 125°59'1717.2
2016-Jul-21 15:34N 48°59' W 126°19'1817.9
2016-Jul-21 14:33N 49°10' W 126°41'1918.4
2016-Jul-21 13:31N 49°22' W 127°04'54919.3
2016-Jul-20 09:00N 57°18' W 134°42'7318.2 150 / 211016.6 5.4 0.515.1 17.4
2016-Jul-20 05:00N 58°30' W 135°00'55 5.5 160 / 271011.0 16.9 16.0
2016-Jul-19 19:00N 59°24' W 135°18'24 3.5 060 / 71013.0 20.3 16.0
2016-Jul-19 12:00N 59°00' W 135°12'56 4.6 310 / 131013.010.8 16.8 17.4
2016-Jul-19 00:00N 58°12' W 134°18'66 5.1 300 / 151015.010.8 26.1 15.9
2016-Jul-18 11:00N 57°06' W 134°06'295 9.5 310 / 41015.010.8 15.0 15.3
2016-Jul-17 04:00N 52°42' W 130°18'8316.7 320 / 291017.0 15.3 15.8
2016-Jul-16 23:00N 51°24' W 129°30'4615.3 310 / 221022.0 5.4 17.0 16.0
2016-Jul-16 20:00N 50°42' W 129°00'3316.6 320 / 201022.0 5.4 15.9 15.0
2016-Jul-16 18:00N 50°18' W 128°24'8716.0 320 / 171019.0 14.0 15.6
2016-Jul-16 12:33N 49°20' W 126°44'2221.6
2016-Jul-16 11:33N 49°07' W 126°18'2035.8
2016-Jul-16 11:00N 48°54' W 125°54'1 3.2 100 / 141020.0 14.1 15.0
2016-Jul-16 10:33N 48°53' W 125°52'2221.7
2016-Jul-16 09:33N 48°40' W 125°26'2120.7
2016-Jul-16 08:33N 48°31' W 124°58'2221.8
2016-Jul-16 07:33N 48°26' W 124°26'2121.2
2016-Jul-16 06:33N 48°18' W 123°56'3014.9
2016-Jul-16 04:33N 48°11' W 123°13'1716.8
2016-Jul-16 03:32N 48°11' W 122°47'1817.9
2016-Jul-16 02:33N 47°57' W 122°32'1717.3
2016-Jul-16 01:34N 47°40' W 122°27'4 1.7
2016-Jul-15 23:25N 47°38' W 122°23'0 0.0
2016-Jul-15 15:31N 47°38' W 122°23'0 0.0
2016-Jul-15 13:28N 47°38' W 122°23'1 0.6
2016-Jul-15 12:33N 47°37' W 122°23'9 9.0
2016-Jul-15 11:34N 47°46' W 122°27'1515.1
2016-Jul-15 10:34N 47°59' W 122°37'1414.1
2016-Jul-15 09:32N 48°11' W 122°50'1414.8
2016-Jul-15 08:34N 48°11' W 123°11'1212.2
2016-Jul-15 07:33N 48°15' W 123°29'11 1.5
2016-Jul-15 00:18N 48°25' W 123°23'0 0.0
2016-Jul-14 23:33N 48°25' W 123°23'8 8.2
2016-Jul-14 22:34N 48°17' W 123°26'1514.9
2016-Jul-14 21:33N 48°14' W 123°48'1515.4
2016-Jul-14 20:33N 48°18' W 124°10'6 9.9
2016-Jul-14 20:00N 48°18' W 124°18'1126.3 330 / 131021.0 5.4 0.515.414.814.0
2016-Jul-14 19:33N 48°25' W 124°32'1817.8
2016-Jul-14 18:33N 48°28' W 124°58'1817.6
2016-Jul-14 17:34N 48°33' W 125°24'1817.9
2016-Jul-14 16:34N 48°42' W 125°47'4 7.6
2016-Jul-14 16:00N 48°42' W 125°54'1433.0 300 / 211026.0 15.2 16.0
2016-Jul-14 15:33N 48°53' W 126°08'1818.4
2016-Jul-14 14:33N 49°04' W 126°30'1818.4
2016-Jul-14 13:33N 49°16' W 126°52'  
Track history (hours):
 
Tides and Currents Weather Stations Pressure Air Temp Water Temp Dewpoint Dewpoint Depression Visibility Wind Speed Wind Dir Waves Ship Positions

Celebrity Solstice

Last reported at 2016-Jul-24 11:00 UTC. Time now 2016-Jul-25 06:08 UTC.
Position N 55°00' W 131°06'.

Length 316 m; draft 9 m.

Type: Passenger vessel. MMSI: 249409000.

Wind from 140 at 15 knots

Barometer 1017.0 mb
Air temperature 13.7 ° C
Visibility: greater than 5.4 NM
Water temperature 15.0 ° C

Date/timePositionNaut miles runAvg speedWind from/ knotsBaromVisibWave heightAir tempDewpointWater temp
2016-Jul-24 11:00N 55°00' W 131°06'8516.9 140 / 151017.0 5.4 13.7 15.0
2016-Jul-24 06:00N 53°36' W 130°48'28817.2 180 / 141021.0 13.6 16.0
2016-Jul-23 13:15N 49°27' W 126°56'1217.8
2016-Jul-23 12:34N 49°19' W 126°42'1817.9
2016-Jul-23 11:33N 49°08' W 126°20'1933.5
2016-Jul-23 11:00N 48°54' W 126°00'3 6.2 300 / 101026.0 5.4 16.3 16.7
2016-Jul-23 10:34N 48°56' W 125°58'1817.9
2016-Jul-23 09:33N 48°45' W 125°37'1322.5
2016-Jul-23 09:00N 48°36' W 125°24'613.9 270 / 151027.0 5.4 1.016.0 15.5
2016-Jul-23 08:34N 48°34' W 125°15'1817.8
2016-Jul-23 07:34N 48°31' W 124°49'1918.9
2016-Jul-23 06:33N 48°25' W 124°22'3321.1
2016-Jul-23 05:00N 48°12' W 123°36'511.1 300 / 301026.0 14.4 16.0
2016-Jul-23 04:32N 48°14' W 123°29'1313.1
2016-Jul-23 03:33N 48°12' W 123°10'1616.2
2016-Jul-23 02:33N 48°11' W 122°46'1515.5
2016-Jul-23 01:34N 47°58' W 122°34'1616.0
2016-Jul-23 00:34N 47°42' W 122°27'5 0.9
2016-Jul-22 19:04N 47°38' W 122°23'452.5
2016-Jul-22 19:00N 47°36' W 122°18'4 1.0 190 / 61027.0 16.0
2016-Jul-22 15:11N 47°38' W 122°23'0 0.0
2016-Jul-22 13:32N 47°38' W 122°23'0 0.1
2016-Jul-22 12:33N 47°38' W 122°23'9 8.9
2016-Jul-22 11:33N 47°46' W 122°27'814.3
2016-Jul-22 11:00N 47°54' W 122°30'614.1 160 / 91022.0 5.4 16.1 14.2
2016-Jul-22 10:33N 47°59' W 122°36'1413.9
2016-Jul-22 09:33N 48°10' W 122°47'1515.3
2016-Jul-22 08:33N 48°11' W 123°10'1313.4
2016-Jul-22 07:33N 48°14' W 123°30'1111.5
2016-Jul-22 06:33N 48°25' W 123°23'0 0.1
2016-Jul-21 23:33N 48°25' W 123°24'1413.6
2016-Jul-21 22:33N 48°14' W 123°35'1817.3
2016-Jul-21 21:30N 48°16' W 124°03'1717.7
2016-Jul-21 20:33N 48°23' W 124°26'1717.1
2016-Jul-21 19:33N 48°28' W 124°50'1717.1
2016-Jul-21 18:33N 48°30' W 125°15'1716.9
2016-Jul-21 17:33N 48°38' W 125°38'1717.0
2016-Jul-21 16:34N 48°48' W 125°59'1717.2
2016-Jul-21 15:34N 48°59' W 126°19'1817.9
2016-Jul-21 14:33N 49°10' W 126°41'1918.4
2016-Jul-21 13:31N 49°22' W 127°04'54919.3
2016-Jul-20 09:00N 57°18' W 134°42'7318.2 150 / 211016.6 5.4 0.515.1 17.4
2016-Jul-20 05:00N 58°30' W 135°00'55 5.5 160 / 271011.0 16.9 16.0
2016-Jul-19 19:00N 59°24' W 135°18'24 3.5 060 / 71013.0 20.3 16.0
2016-Jul-19 12:00N 59°00' W 135°12'56 4.6 310 / 131013.010.8 16.8 17.4
2016-Jul-19 00:00N 58°12' W 134°18'66 5.1 300 / 151015.010.8 26.1 15.9
2016-Jul-18 11:00N 57°06' W 134°06'295 9.5 310 / 41015.010.8 15.0 15.3
2016-Jul-17 04:00N 52°42' W 130°18'8316.7 320 / 291017.0 15.3 15.8
2016-Jul-16 23:00N 51°24' W 129°30'4615.3 310 / 221022.0 5.4 17.0 16.0
2016-Jul-16 20:00N 50°42' W 129°00'3316.6 320 / 201022.0 5.4 15.9 15.0
2016-Jul-16 18:00N 50°18' W 128°24'8716.0 320 / 171019.0 14.0 15.6
2016-Jul-16 12:33N 49°20' W 126°44'2221.6
2016-Jul-16 11:33N 49°07' W 126°18'2035.8
2016-Jul-16 11:00N 48°54' W 125°54'1 3.2 100 / 141020.0 14.1 15.0
2016-Jul-16 10:33N 48°53' W 125°52'2221.7
2016-Jul-16 09:33N 48°40' W 125°26'2120.7
2016-Jul-16 08:33N 48°31' W 124°58'2221.8
2016-Jul-16 07:33N 48°26' W 124°26'2121.2
2016-Jul-16 06:33N 48°18' W 123°56'3014.9
2016-Jul-16 04:33N 48°11' W 123°13'1716.8
2016-Jul-16 03:32N 48°11' W 122°47'1817.9
2016-Jul-16 02:33N 47°57' W 122°32'1717.3
2016-Jul-16 01:34N 47°40' W 122°27'4 1.7
2016-Jul-15 23:25N 47°38' W 122°23'0 0.0
2016-Jul-15 15:31N 47°38' W 122°23'0 0.0
2016-Jul-15 13:28N 47°38' W 122°23'1 0.6
2016-Jul-15 12:33N 47°37' W 122°23'9 9.0
2016-Jul-15 11:34N 47°46' W 122°27'1515.1
2016-Jul-15 10:34N 47°59' W 122°37'1414.1
2016-Jul-15 09:32N 48°11' W 122°50'1414.8
2016-Jul-15 08:34N 48°11' W 123°11'1212.2
2016-Jul-15 07:33N 48°15' W 123°29'11 1.5
2016-Jul-15 00:18N 48°25' W 123°23'0 0.0
2016-Jul-14 23:33N 48°25' W 123°23'8 8.2
2016-Jul-14 22:34N 48°17' W 123°26'1514.9
2016-Jul-14 21:33N 48°14' W 123°48'1515.4
2016-Jul-14 20:33N 48°18' W 124°10'6 9.9
2016-Jul-14 20:00N 48°18' W 124°18'1126.3 330 / 131021.0 5.4 0.515.414.814.0
2016-Jul-14 19:33N 48°25' W 124°32'1817.8
2016-Jul-14 18:33N 48°28' W 124°58'1817.6
2016-Jul-14 17:34N 48°33' W 125°24'1817.9
2016-Jul-14 16:34N 48°42' W 125°47'4 7.6
2016-Jul-14 16:00N 48°42' W 125°54'1433.0 300 / 211026.0 15.2 16.0
2016-Jul-14 15:33N 48°53' W 126°08'1818.4
2016-Jul-14 14:33N 49°04' W 126°30'1818.4
2016-Jul-14 13:33N 49°16' W 126°52'  

Dump ship's entire track history